Ashley, North Dakota
Current Conditions -  °F | °C
As of 8:55 PM on Wednesday 22 Oct 2014 (Local Time) from K7L2 Reporting Station
Clear Clear  
Wind Chill: 41°   Ceiling: Unl
Heat Index: 45°   Visibility: 10mi
Dew Point: 37°   Wind: 6mph
Humidity: 76%   Direction: 210°SSW
Pressure: 29.91"   Gusts: NA
Location:  46.03°N, 99.37°W
Report Text: K7L2 230155Z AUTO 21005KT 10SM CLR 07/03 A2991 RMK AO2 PWINO PNO
Loading
Personal Weather Stations






























Interactive Weather Map New forecast layout! Learn more

10-Day Weather Forecast

Advertisements
Track Severe Weather on mobile